sensor_id;sensor_type;location;lat;lon;timestamp;P1;durP1;ratioP1;P2;durP2;ratioP2
22794;SDS011;11564;50.920;11.612;2022-08-19T00:00:23;30.33;;;24.97;;
22794;SDS011;11564;50.920;11.612;2022-08-19T00:02:49;25.80;;;23.10;;
22794;SDS011;11564;50.920;11.612;2022-08-19T00:05:15;28.50;;;23.53;;
22794;SDS011;11564;50.920;11.612;2022-08-19T00:07:42;30.30;;;24.13;;
22794;SDS011;11564;50.920;11.612;2022-08-19T00:10:09;34.60;;;25.77;;
22794;SDS011;11564;50.920;11.612;2022-08-19T00:12:36;27.70;;;22.03;;
22794;SDS011;11564;50.920;11.612;2022-08-19T00:15:04;31.27;;;25.70;;
22794;SDS011;11564;50.920;11.612;2022-08-19T00:17:31;30.10;;;25.17;;
22794;SDS011;11564;50.920;11.612;2022-08-19T00:19:57;29.87;;;25.03;;
22794;SDS011;11564;50.920;11.612;2022-08-19T00:22:22;30.13;;;25.40;;
22794;SDS011;11564;50.920;11.612;2022-08-19T00:24:48;29.13;;;25.27;;
22794;SDS011;11564;50.920;11.612;2022-08-19T00:27:13;28.00;;;24.50;;
22794;SDS011;11564;50.920;11.612;2022-08-19T00:29:39;28.47;;;24.63;;
22794;SDS011;11564;50.920;11.612;2022-08-19T00:32:05;31.00;;;26.50;;
22794;SDS011;11564;50.920;11.612;2022-08-19T00:34:31;29.57;;;25.37;;
22794;SDS011;11564;50.920;11.612;2022-08-19T00:36:57;32.20;;;25.90;;
22794;SDS011;11564;50.920;11.612;2022-08-19T00:39:24;30.20;;;25.50;;
22794;SDS011;11564;50.920;11.612;2022-08-19T00:41:50;32.27;;;28.43;;
22794;SDS011;11564;50.920;11.612;2022-08-19T00:44:18;27.90;;;24.10;;
22794;SDS011;11564;50.920;11.612;2022-08-19T00:46:48;28.63;;;25.67;;
22794;SDS011;11564;50.920;11.612;2022-08-19T00:51:53;34.70;;;28.27;;
22794;SDS011;11564;50.920;11.612;2022-08-19T00:54:24;29.90;;;25.07;;
22794;SDS011;11564;50.920;11.612;2022-08-19T00:56:49;33.70;;;28.43;;
22794;SDS011;11564;50.920;11.612;2022-08-19T00:59:16;35.23;;;28.90;;
22794;SDS011;11564;50.920;11.612;2022-08-19T01:01:43;31.63;;;26.47;;
22794;SDS011;11564;50.920;11.612;2022-08-19T01:04:10;33.37;;;25.57;;
22794;SDS011;11564;50.920;11.612;2022-08-19T01:06:37;30.33;;;26.47;;
22794;SDS011;11564;50.920;11.612;2022-08-19T01:09:05;30.27;;;26.60;;
22794;SDS011;11564;50.920;11.612;2022-08-19T01:11:33;32.37;;;26.13;;
22794;SDS011;11564;50.920;11.612;2022-08-19T01:14:01;30.97;;;26.17;;
22794;SDS011;11564;50.920;11.612;2022-08-19T01:16:28;31.47;;;28.13;;
22794;SDS011;11564;50.920;11.612;2022-08-19T01:18:54;29.67;;;26.47;;
22794;SDS011;11564;50.920;11.612;2022-08-19T01:23:55;25.90;;;23.13;;
22794;SDS011;11564;50.920;11.612;2022-08-19T01:26:22;27.73;;;24.73;;
22794;SDS011;11564;50.920;11.612;2022-08-19T01:28:51;28.63;;;24.27;;
22794;SDS011;11564;50.920;11.612;2022-08-19T01:31:20;32.80;;;24.90;;
22794;SDS011;11564;50.920;11.612;2022-08-19T01:33:49;33.70;;;26.20;;
22794;SDS011;11564;50.920;11.612;2022-08-19T01:36:38;31.37;;;25.10;;
22794;SDS011;11564;50.920;11.612;2022-08-19T01:39:05;32.13;;;25.70;;
22794;SDS011;11564;50.920;11.612;2022-08-19T01:41:33;36.70;;;27.83;;
22794;SDS011;11564;50.920;11.612;2022-08-19T01:43:59;33.50;;;26.67;;
22794;SDS011;11564;50.920;11.612;2022-08-19T01:46:28;33.40;;;27.00;;
22794;SDS011;11564;50.920;11.612;2022-08-19T01:48:54;37.27;;;25.40;;
22794;SDS011;11564;50.920;11.612;2022-08-19T01:51:21;29.23;;;26.10;;
22794;SDS011;11564;50.920;11.612;2022-08-19T01:53:47;39.27;;;27.30;;
22794;SDS011;11564;50.920;11.612;2022-08-19T01:56:15;36.80;;;28.03;;
22794;SDS011;11564;50.920;11.612;2022-08-19T01:58:43;33.70;;;26.20;;
22794;SDS011;11564;50.920;11.612;2022-08-19T02:01:13;31.33;;;25.17;;
22794;SDS011;11564;50.920;11.612;2022-08-19T02:03:39;31.13;;;25.00;;
22794;SDS011;11564;50.920;11.612;2022-08-19T02:06:04;30.07;;;26.20;;
22794;SDS011;11564;50.920;11.612;2022-08-19T02:08:31;28.10;;;25.17;;
22794;SDS011;11564;50.920;11.612;2022-08-19T02:10:59;29.37;;;24.10;;
22794;SDS011;11564;50.920;11.612;2022-08-19T02:13:25;29.60;;;24.43;;
22794;SDS011;11564;50.920;11.612;2022-08-19T02:15:51;30.50;;;24.63;;
22794;SDS011;11564;50.920;11.612;2022-08-19T02:18:17;31.60;;;25.33;;
22794;SDS011;11564;50.920;11.612;2022-08-19T02:20:43;27.83;;;22.10;;
22794;SDS011;11564;50.920;11.612;2022-08-19T02:23:12;28.63;;;24.50;;
22794;SDS011;11564;50.920;11.612;2022-08-19T02:25:39;29.57;;;22.87;;
22794;SDS011;11564;50.920;11.612;2022-08-19T02:28:05;35.20;;;22.67;;
22794;SDS011;11564;50.920;11.612;2022-08-19T02:30:31;28.27;;;24.27;;
22794;SDS011;11564;50.920;11.612;2022-08-19T02:32:56;33.53;;;25.50;;
22794;SDS011;11564;50.920;11.612;2022-08-19T02:35:22;28.70;;;23.13;;
22794;SDS011;11564;50.920;11.612;2022-08-19T02:37:48;30.13;;;26.00;;
22794;SDS011;11564;50.920;11.612;2022-08-19T02:40:32;26.43;;;22.83;;
22794;SDS011;11564;50.920;11.612;2022-08-19T02:42:59;25.77;;;22.60;;
22794;SDS011;11564;50.920;11.612;2022-08-19T02:45:26;30.53;;;25.00;;
22794;SDS011;11564;50.920;11.612;2022-08-19T02:47:51;28.90;;;23.63;;
22794;SDS011;11564;50.920;11.612;2022-08-19T02:50:17;30.87;;;25.07;;
22794;SDS011;11564;50.920;11.612;2022-08-19T02:52:43;26.43;;;23.37;;
22794;SDS011;11564;50.920;11.612;2022-08-19T02:55:09;32.30;;;23.87;;
22794;SDS011;11564;50.920;11.612;2022-08-19T02:57:35;32.27;;;25.70;;
22794;SDS011;11564;50.920;11.612;2022-08-19T03:00:03;28.83;;;25.00;;
22794;SDS011;11564;50.920;11.612;2022-08-19T03:02:30;26.73;;;22.90;;
22794;SDS011;11564;50.920;11.612;2022-08-19T03:04:56;27.37;;;24.53;;
22794;SDS011;11564;50.920;11.612;2022-08-19T03:07:21;26.13;;;23.30;;
22794;SDS011;11564;50.920;11.612;2022-08-19T03:09:47;30.30;;;23.63;;
22794;SDS011;11564;50.920;11.612;2022-08-19T03:12:13;40.17;;;25.00;;
22794;SDS011;11564;50.920;11.612;2022-08-19T03:14:38;25.90;;;23.37;;
22794;SDS011;11564;50.920;11.612;2022-08-19T03:17:04;29.93;;;23.30;;
22794;SDS011;11564;50.920;11.612;2022-08-19T03:19:30;27.30;;;22.90;;
22794;SDS011;11564;50.920;11.612;2022-08-19T03:21:56;29.80;;;24.23;;
22794;SDS011;11564;50.920;11.612;2022-08-19T03:24:23;28.80;;;25.13;;
22794;SDS011;11564;50.920;11.612;2022-08-19T03:26:51;35.00;;;24.93;;
22794;SDS011;11564;50.920;11.612;2022-08-19T03:29:21;25.70;;;22.97;;
22794;SDS011;11564;50.920;11.612;2022-08-19T03:31:47;31.73;;;25.17;;
22794;SDS011;11564;50.920;11.612;2022-08-19T03:34:14;31.10;;;25.80;;
22794;SDS011;11564;50.920;11.612;2022-08-19T03:36:42;31.50;;;26.43;;
22794;SDS011;11564;50.920;11.612;2022-08-19T03:39:09;26.60;;;23.27;;
22794;SDS011;11564;50.920;11.612;2022-08-19T03:41:36;30.50;;;25.33;;
22794;SDS011;11564;50.920;11.612;2022-08-19T03:44:04;28.97;;;24.13;;
22794;SDS011;11564;50.920;11.612;2022-08-19T03:46:30;25.73;;;23.00;;
22794;SDS011;11564;50.920;11.612;2022-08-19T03:48:57;28.37;;;24.50;;
22794;SDS011;11564;50.920;11.612;2022-08-19T03:51:29;31.33;;;25.97;;
22794;SDS011;11564;50.920;11.612;2022-08-19T03:53:58;32.00;;;24.23;;
22794;SDS011;11564;50.920;11.612;2022-08-19T03:56:25;28.70;;;24.50;;
22794;SDS011;11564;50.920;11.612;2022-08-19T03:58:52;33.60;;;26.20;;
22794;SDS011;11564;50.920;11.612;2022-08-19T04:01:20;27.67;;;24.70;;
22794;SDS011;11564;50.920;11.612;2022-08-19T04:03:47;32.63;;;25.37;;
22794;SDS011;11564;50.920;11.612;2022-08-19T04:08:40;32.30;;;26.00;;
22794;SDS011;11564;50.920;11.612;2022-08-19T04:11:29;33.90;;;26.70;;
22794;SDS011;11564;50.920;11.612;2022-08-19T04:13:55;34.90;;;26.73;;
22794;SDS011;11564;50.920;11.612;2022-08-19T04:16:21;31.70;;;25.37;;
22794;SDS011;11564;50.920;11.612;2022-08-19T04:18:48;29.00;;;25.77;;
22794;SDS011;11564;50.920;11.612;2022-08-19T04:21:16;29.83;;;26.30;;
22794;SDS011;11564;50.920;11.612;2022-08-19T04:23:43;29.33;;;25.63;;
22794;SDS011;11564;50.920;11.612;2022-08-19T04:26:13;32.20;;;26.60;;
22794;SDS011;11564;50.920;11.612;2022-08-19T04:28:40;33.77;;;27.23;;
22794;SDS011;11564;50.920;11.612;2022-08-19T04:31:11;29.67;;;26.43;;
22794;SDS011;11564;50.920;11.612;2022-08-19T04:33:39;29.53;;;25.70;;
22794;SDS011;11564;50.920;11.612;2022-08-19T04:36:05;28.23;;;24.37;;
22794;SDS011;11564;50.920;11.612;2022-08-19T04:38:30;39.50;;;27.10;;
22794;SDS011;11564;50.920;11.612;2022-08-19T04:40:56;32.77;;;26.33;;
22794;SDS011;11564;50.920;11.612;2022-08-19T04:43:40;29.80;;;25.90;;
22794;SDS011;11564;50.920;11.612;2022-08-19T04:46:09;31.13;;;26.53;;
22794;SDS011;11564;50.920;11.612;2022-08-19T04:48:36;28.43;;;25.23;;
22794;SDS011;11564;50.920;11.612;2022-08-19T04:51:05;30.00;;;26.43;;
22794;SDS011;11564;50.920;11.612;2022-08-19T04:53:33;27.73;;;24.73;;
22794;SDS011;11564;50.920;11.612;2022-08-19T04:56:04;36.10;;;26.07;;
22794;SDS011;11564;50.920;11.612;2022-08-19T04:58:32;29.50;;;25.33;;
22794;SDS011;11564;50.920;11.612;2022-08-19T05:00:58;30.50;;;25.73;;
22794;SDS011;11564;50.920;11.612;2022-08-19T05:03:27;32.30;;;27.13;;
22794;SDS011;11564;50.920;11.612;2022-08-19T05:05:58;33.23;;;27.80;;
22794;SDS011;11564;50.920;11.612;2022-08-19T05:08:32;29.63;;;26.47;;
22794;SDS011;11564;50.920;11.612;2022-08-19T05:11:09;34.80;;;27.87;;
22794;SDS011;11564;50.920;11.612;2022-08-19T05:13:36;33.33;;;27.07;;
22794;SDS011;11564;50.920;11.612;2022-08-19T05:16:02;35.10;;;28.00;;
22794;SDS011;11564;50.920;11.612;2022-08-19T05:18:28;33.60;;;29.40;;
22794;SDS011;11564;50.920;11.612;2022-08-19T05:21:13;37.23;;;28.97;;
22794;SDS011;11564;50.920;11.612;2022-08-19T05:23:58;38.50;;;29.00;;
22794;SDS011;11564;50.920;11.612;2022-08-19T05:26:24;32.50;;;27.57;;
22794;SDS011;11564;50.920;11.612;2022-08-19T05:28:51;37.03;;;27.53;;
22794;SDS011;11564;50.920;11.612;2022-08-19T05:31:18;35.00;;;29.43;;
22794;SDS011;11564;50.920;11.612;2022-08-19T05:33:45;32.67;;;28.70;;
22794;SDS011;11564;50.920;11.612;2022-08-19T05:36:11;31.77;;;28.17;;
22794;SDS011;11564;50.920;11.612;2022-08-19T05:38:38;34.27;;;27.30;;
22794;SDS011;11564;50.920;11.612;2022-08-19T05:41:08;37.60;;;31.20;;
22794;SDS011;11564;50.920;11.612;2022-08-19T05:43:34;37.43;;;29.60;;
22794;SDS011;11564;50.920;11.612;2022-08-19T05:46:00;35.27;;;29.77;;
22794;SDS011;11564;50.920;11.612;2022-08-19T05:48:26;37.07;;;29.03;;
22794;SDS011;11564;50.920;11.612;2022-08-19T05:50:51;32.60;;;28.20;;
22794;SDS011;11564;50.920;11.612;2022-08-19T05:53:17;40.10;;;31.53;;
22794;SDS011;11564;50.920;11.612;2022-08-19T05:55:43;38.97;;;30.73;;
22794;SDS011;11564;50.920;11.612;2022-08-19T05:58:08;43.20;;;32.03;;
22794;SDS011;11564;50.920;11.612;2022-08-19T06:00:35;38.37;;;28.17;;
22794;SDS011;11564;50.920;11.612;2022-08-19T06:03:02;39.60;;;29.70;;
22794;SDS011;11564;50.920;11.612;2022-08-19T06:05:29;39.43;;;29.33;;
22794;SDS011;11564;50.920;11.612;2022-08-19T06:07:55;37.20;;;28.30;;
22794;SDS011;11564;50.920;11.612;2022-08-19T06:10:20;35.20;;;28.23;;
22794;SDS011;11564;50.920;11.612;2022-08-19T06:12:47;44.53;;;29.43;;
22794;SDS011;11564;50.920;11.612;2022-08-19T06:15:14;41.37;;;30.57;;
22794;SDS011;11564;50.920;11.612;2022-08-19T06:17:40;41.83;;;30.67;;
22794;SDS011;11564;50.920;11.612;2022-08-19T06:20:09;37.67;;;29.50;;
22794;SDS011;11564;50.920;11.612;2022-08-19T06:22:46;41.43;;;29.10;;
22794;SDS011;11564;50.920;11.612;2022-08-19T06:25:15;36.90;;;29.60;;
22794;SDS011;11564;50.920;11.612;2022-08-19T06:27:42;33.20;;;29.33;;
22794;SDS011;11564;50.920;11.612;2022-08-19T06:30:08;36.47;;;31.50;;
22794;SDS011;11564;50.920;11.612;2022-08-19T06:32:35;37.20;;;29.77;;
22794;SDS011;11564;50.920;11.612;2022-08-19T06:35:00;35.10;;;31.03;;
22794;SDS011;11564;50.920;11.612;2022-08-19T06:37:26;38.30;;;29.90;;
22794;SDS011;11564;50.920;11.612;2022-08-19T06:39:52;42.77;;;32.37;;
22794;SDS011;11564;50.920;11.612;2022-08-19T06:42:17;33.67;;;29.87;;
22794;SDS011;11564;50.920;11.612;2022-08-19T06:44:44;35.67;;;30.47;;
22794;SDS011;11564;50.920;11.612;2022-08-19T06:47:13;41.73;;;31.80;;
22794;SDS011;11564;50.920;11.612;2022-08-19T06:49:41;40.93;;;31.13;;
22794;SDS011;11564;50.920;11.612;2022-08-19T06:52:08;39.53;;;33.10;;
22794;SDS011;11564;50.920;11.612;2022-08-19T06:54:36;37.07;;;31.30;;
22794;SDS011;11564;50.920;11.612;2022-08-19T06:57:02;38.10;;;32.90;;
22794;SDS011;11564;50.920;11.612;2022-08-19T06:59:28;38.47;;;32.07;;
22794;SDS011;11564;50.920;11.612;2022-08-19T07:01:57;40.20;;;32.20;;
22794;SDS011;11564;50.920;11.612;2022-08-19T07:04:25;32.60;;;29.10;;
22794;SDS011;11564;50.920;11.612;2022-08-19T07:07:00;36.00;;;30.07;;
22794;SDS011;11564;50.920;11.612;2022-08-19T07:09:30;39.30;;;31.70;;
22794;SDS011;11564;50.920;11.612;2022-08-19T07:11:56;37.70;;;31.93;;
22794;SDS011;11564;50.920;11.612;2022-08-19T07:14:24;36.87;;;29.97;;
22794;SDS011;11564;50.920;11.612;2022-08-19T07:16:51;37.47;;;32.17;;
22794;SDS011;11564;50.920;11.612;2022-08-19T07:19:19;38.80;;;31.10;;
22794;SDS011;11564;50.920;11.612;2022-08-19T07:21:47;37.90;;;32.07;;
22794;SDS011;11564;50.920;11.612;2022-08-19T07:24:16;37.10;;;32.13;;
22794;SDS011;11564;50.920;11.612;2022-08-19T07:26:42;35.27;;;30.47;;
22794;SDS011;11564;50.920;11.612;2022-08-19T07:29:08;35.07;;;30.00;;
22794;SDS011;11564;50.920;11.612;2022-08-19T07:31:35;39.07;;;33.30;;
22794;SDS011;11564;50.920;11.612;2022-08-19T07:34:02;38.90;;;31.93;;
22794;SDS011;11564;50.920;11.612;2022-08-19T07:36:32;40.93;;;33.20;;
22794;SDS011;11564;50.920;11.612;2022-08-19T07:39:01;35.60;;;31.63;;
22794;SDS011;11564;50.920;11.612;2022-08-19T07:41:32;33.60;;;28.83;;
22794;SDS011;11564;50.920;11.612;2022-08-19T07:44:00;37.93;;;31.57;;
22794;SDS011;11564;50.920;11.612;2022-08-19T07:46:36;40.23;;;32.00;;
22794;SDS011;11564;50.920;11.612;2022-08-19T07:49:05;39.83;;;32.50;;
22794;SDS011;11564;50.920;11.612;2022-08-19T07:51:31;38.83;;;32.93;;
22794;SDS011;11564;50.920;11.612;2022-08-19T07:53:58;42.17;;;33.03;;
22794;SDS011;11564;50.920;11.612;2022-08-19T07:56:24;38.77;;;32.10;;
22794;SDS011;11564;50.920;11.612;2022-08-19T07:58:50;36.77;;;31.47;;
22794;SDS011;11564;50.920;11.612;2022-08-19T08:01:19;38.33;;;33.93;;
22794;SDS011;11564;50.920;11.612;2022-08-19T08:03:47;37.87;;;31.93;;
22794;SDS011;11564;50.920;11.612;2022-08-19T08:06:32;40.83;;;31.43;;
22794;SDS011;11564;50.920;11.612;2022-08-19T08:09:30;38.80;;;32.50;;
22794;SDS011;11564;50.920;11.612;2022-08-19T08:12:03;40.63;;;34.63;;
22794;SDS011;11564;50.920;11.612;2022-08-19T08:14:40;38.47;;;31.80;;
22794;SDS011;11564;50.920;11.612;2022-08-19T08:17:09;48.97;;;32.07;;
22794;SDS011;11564;50.920;11.612;2022-08-19T08:19:36;40.43;;;32.50;;
22794;SDS011;11564;50.920;11.612;2022-08-19T08:22:02;35.57;;;31.73;;
22794;SDS011;11564;50.920;11.612;2022-08-19T08:24:30;37.77;;;33.67;;
22794;SDS011;11564;50.920;11.612;2022-08-19T08:26:57;40.60;;;32.03;;
22794;SDS011;11564;50.920;11.612;2022-08-19T08:29:25;42.70;;;34.43;;
22794;SDS011;11564;50.920;11.612;2022-08-19T08:31:52;41.10;;;34.53;;
22794;SDS011;11564;50.920;11.612;2022-08-19T08:34:18;45.53;;;33.97;;
22794;SDS011;11564;50.920;11.612;2022-08-19T08:36:44;45.57;;;35.17;;
22794;SDS011;11564;50.920;11.612;2022-08-19T08:39:15;46.20;;;34.53;;
22794;SDS011;11564;50.920;11.612;2022-08-19T08:41:50;47.37;;;36.87;;
22794;SDS011;11564;50.920;11.612;2022-08-19T08:47:17;39.53;;;35.20;;
22794;SDS011;11564;50.920;11.612;2022-08-19T08:49:56;46.27;;;33.77;;
22794;SDS011;11564;50.920;11.612;2022-08-19T08:52:31;42.53;;;32.83;;
22794;SDS011;11564;50.920;11.612;2022-08-19T08:55:04;43.13;;;35.33;;
22794;SDS011;11564;50.920;11.612;2022-08-19T08:57:39;40.80;;;33.23;;
22794;SDS011;11564;50.920;11.612;2022-08-19T09:00:10;51.90;;;35.20;;
22794;SDS011;11564;50.920;11.612;2022-08-19T09:02:40;42.27;;;33.73;;
22794;SDS011;11564;50.920;11.612;2022-08-19T09:05:05;41.00;;;33.40;;
22794;SDS011;11564;50.920;11.612;2022-08-19T09:07:38;42.97;;;31.50;;
22794;SDS011;11564;50.920;11.612;2022-08-19T09:13:54;43.73;;;33.20;;
22794;SDS011;11564;50.920;11.612;2022-08-19T09:16:33;36.53;;;31.83;;
22794;SDS011;11564;50.920;11.612;2022-08-19T09:19:04;35.13;;;31.30;;
22794;SDS011;11564;50.920;11.612;2022-08-19T09:21:31;32.57;;;27.53;;
22794;SDS011;11564;50.920;11.612;2022-08-19T09:23:57;33.40;;;27.13;;
22794;SDS011;11564;50.920;11.612;2022-08-19T09:26:23;38.27;;;28.27;;
22794;SDS011;11564;50.920;11.612;2022-08-19T09:28:51;40.53;;;28.13;;
22794;SDS011;11564;50.920;11.612;2022-08-19T09:31:21;34.40;;;28.60;;
22794;SDS011;11564;50.920;11.612;2022-08-19T09:33:48;40.47;;;28.70;;
22794;SDS011;11564;50.920;11.612;2022-08-19T09:36:15;41.70;;;30.47;;
22794;SDS011;11564;50.920;11.612;2022-08-19T09:38:44;44.23;;;31.57;;
22794;SDS011;11564;50.920;11.612;2022-08-19T09:41:11;38.80;;;31.27;;
22794;SDS011;11564;50.920;11.612;2022-08-19T09:43:39;40.50;;;31.33;;
22794;SDS011;11564;50.920;11.612;2022-08-19T09:46:06;38.70;;;31.10;;
22794;SDS011;11564;50.920;11.612;2022-08-19T09:48:34;39.53;;;33.50;;
22794;SDS011;11564;50.920;11.612;2022-08-19T09:53:31;39.63;;;29.80;;
22794;SDS011;11564;50.920;11.612;2022-08-19T09:55:57;38.77;;;27.17;;
22794;SDS011;11564;50.920;11.612;2022-08-19T09:58:22;34.40;;;28.67;;
22794;SDS011;11564;50.920;11.612;2022-08-19T10:00:52;35.73;;;25.43;;
22794;SDS011;11564;50.920;11.612;2022-08-19T10:03:22;28.93;;;23.93;;
22794;SDS011;11564;50.920;11.612;2022-08-19T10:05:48;31.40;;;23.40;;
22794;SDS011;11564;50.920;11.612;2022-08-19T10:08:24;36.43;;;25.87;;
22794;SDS011;11564;50.920;11.612;2022-08-19T10:10:54;30.37;;;23.60;;
22794;SDS011;11564;50.920;11.612;2022-08-19T10:13:22;31.57;;;24.27;;
22794;SDS011;11564;50.920;11.612;2022-08-19T10:15:54;28.37;;;25.27;;
22794;SDS011;11564;50.920;11.612;2022-08-19T10:18:22;24.97;;;19.30;;
22794;SDS011;11564;50.920;11.612;2022-08-19T10:20:50;20.13;;;17.90;;
22794;SDS011;11564;50.920;11.612;2022-08-19T10:23:17;19.50;;;17.20;;
22794;SDS011;11564;50.920;11.612;2022-08-19T10:25:44;18.73;;;16.67;;
22794;SDS011;11564;50.920;11.612;2022-08-19T10:28:10;20.20;;;18.10;;
22794;SDS011;11564;50.920;11.612;2022-08-19T10:30:37;18.17;;;16.37;;
22794;SDS011;11564;50.920;11.612;2022-08-19T10:33:05;17.27;;;15.47;;
22794;SDS011;11564;50.920;11.612;2022-08-19T10:35:31;14.83;;;13.23;;
22794;SDS011;11564;50.920;11.612;2022-08-19T10:37:57;17.90;;;12.80;;
22794;SDS011;11564;50.920;11.612;2022-08-19T10:40:24;12.47;;;11.10;;
22794;SDS011;11564;50.920;11.612;2022-08-19T10:42:51;11.63;;;10.13;;
22794;SDS011;11564;50.920;11.612;2022-08-19T10:45:17;11.23;;;9.93;;
22794;SDS011;11564;50.920;11.612;2022-08-19T10:47:43;10.50;;;9.30;;
22794;SDS011;11564;50.920;11.612;2022-08-19T10:50:08;10.67;;;9.73;;
22794;SDS011;11564;50.920;11.612;2022-08-19T10:52:52;10.80;;;9.67;;
22794;SDS011;11564;50.920;11.612;2022-08-19T10:55:19;13.90;;;10.47;;
22794;SDS011;11564;50.920;11.612;2022-08-19T10:58:10;11.03;;;10.00;;
22794;SDS011;11564;50.920;11.612;2022-08-19T11:00:40;10.57;;;9.57;;
22794;SDS011;11564;50.920;11.612;2022-08-19T11:03:08;11.07;;;10.03;;
22794;SDS011;11564;50.920;11.612;2022-08-19T11:05:33;9.00;;;8.20;;
22794;SDS011;11564;50.920;11.612;2022-08-19T11:07:59;9.30;;;8.50;;
22794;SDS011;11564;50.920;11.612;2022-08-19T11:10:25;9.90;;;9.10;;
22794;SDS011;11564;50.920;11.612;2022-08-19T11:12:50;10.47;;;8.80;;
22794;SDS011;11564;50.920;11.612;2022-08-19T11:15:20;10.80;;;8.63;;
22794;SDS011;11564;50.920;11.612;2022-08-19T11:17:46;9.53;;;8.63;;
22794;SDS011;11564;50.920;11.612;2022-08-19T11:20:12;12.40;;;9.40;;
22794;SDS011;11564;50.920;11.612;2022-08-19T11:22:39;9.33;;;8.47;;
22794;SDS011;11564;50.920;11.612;2022-08-19T11:25:06;10.00;;;8.47;;
22794;SDS011;11564;50.920;11.612;2022-08-19T11:27:32;7.90;;;7.30;;
22794;SDS011;11564;50.920;11.612;2022-08-19T11:29:58;7.40;;;6.90;;
22794;SDS011;11564;50.920;11.612;2022-08-19T11:32:25;8.20;;;7.60;;
22794;SDS011;11564;50.920;11.612;2022-08-19T11:34:52;7.50;;;6.93;;
22794;SDS011;11564;50.920;11.612;2022-08-19T11:37:17;9.40;;;8.37;;
22794;SDS011;11564;50.920;11.612;2022-08-19T11:39:43;10.70;;;7.93;;
22794;SDS011;11564;50.920;11.612;2022-08-19T11:42:08;7.60;;;6.90;;
22794;SDS011;11564;50.920;11.612;2022-08-19T11:44:53;8.93;;;8.03;;
22794;SDS011;11564;50.920;11.612;2022-08-19T11:47:19;8.07;;;7.27;;
22794;SDS011;11564;50.920;11.612;2022-08-19T11:49:46;9.27;;;8.57;;
22794;SDS011;11564;50.920;11.612;2022-08-19T11:52:12;10.50;;;8.90;;
22794;SDS011;11564;50.920;11.612;2022-08-19T11:54:38;11.03;;;8.47;;
22794;SDS011;11564;50.920;11.612;2022-08-19T11:57:03;10.23;;;8.60;;
22794;SDS011;11564;50.920;11.612;2022-08-19T11:59:30;11.67;;;8.60;;
22794;SDS011;11564;50.920;11.612;2022-08-19T12:01:55;9.83;;;8.87;;
22794;SDS011;11564;50.920;11.612;2022-08-19T12:04:22;8.67;;;7.57;;
22794;SDS011;11564;50.920;11.612;2022-08-19T12:06:47;8.80;;;8.00;;
22794;SDS011;11564;50.920;11.612;2022-08-19T12:09:14;10.00;;;9.10;;
22794;SDS011;11564;50.920;11.612;2022-08-19T12:11:42;9.60;;;8.03;;
22794;SDS011;11564;50.920;11.612;2022-08-19T12:14:09;8.13;;;7.43;;
22794;SDS011;11564;50.920;11.612;2022-08-19T12:16:36;8.10;;;7.40;;
22794;SDS011;11564;50.920;11.612;2022-08-19T12:19:03;8.20;;;7.53;;
22794;SDS011;11564;50.920;11.612;2022-08-19T12:21:30;9.60;;;8.73;;
22794;SDS011;11564;50.920;11.612;2022-08-19T12:23:58;8.70;;;8.00;;
22794;SDS011;11564;50.920;11.612;2022-08-19T12:26:26;11.53;;;7.70;;
22794;SDS011;11564;50.920;11.612;2022-08-19T12:28:53;10.33;;;9.00;;
22794;SDS011;11564;50.920;11.612;2022-08-19T12:31:19;9.50;;;8.53;;
22794;SDS011;11564;50.920;11.612;2022-08-19T12:33:45;9.93;;;9.03;;
22794;SDS011;11564;50.920;11.612;2022-08-19T12:36:13;9.67;;;8.87;;
22794;SDS011;11564;50.920;11.612;2022-08-19T12:38:40;9.20;;;8.30;;
22794;SDS011;11564;50.920;11.612;2022-08-19T12:41:08;12.07;;;9.70;;
22794;SDS011;11564;50.920;11.612;2022-08-19T12:43:36;11.60;;;8.87;;
22794;SDS011;11564;50.920;11.612;2022-08-19T12:46:03;9.90;;;9.10;;
22794;SDS011;11564;50.920;11.612;2022-08-19T12:48:30;10.07;;;9.17;;
22794;SDS011;11564;50.920;11.612;2022-08-19T12:50:56;11.20;;;10.13;;
22794;SDS011;11564;50.920;11.612;2022-08-19T12:53:21;10.73;;;9.63;;
22794;SDS011;11564;50.920;11.612;2022-08-19T12:55:47;10.33;;;9.23;;
22794;SDS011;11564;50.920;11.612;2022-08-19T12:58:20;11.43;;;10.23;;
22794;SDS011;11564;50.920;11.612;2022-08-19T13:00:46;11.33;;;10.47;;
22794;SDS011;11564;50.920;11.612;2022-08-19T13:03:12;14.40;;;10.90;;
22794;SDS011;11564;50.920;11.612;2022-08-19T13:05:38;12.23;;;11.03;;
22794;SDS011;11564;50.920;11.612;2022-08-19T13:08:04;14.90;;;10.40;;
22794;SDS011;11564;50.920;11.612;2022-08-19T13:10:30;12.27;;;11.13;;
22794;SDS011;11564;50.920;11.612;2022-08-19T13:13:00;10.33;;;9.50;;
22794;SDS011;11564;50.920;11.612;2022-08-19T13:15:33;10.40;;;9.33;;
22794;SDS011;11564;50.920;11.612;2022-08-19T13:18:04;14.43;;;11.43;;
22794;SDS011;11564;50.920;11.612;2022-08-19T13:20:30;10.70;;;9.60;;
22794;SDS011;11564;50.920;11.612;2022-08-19T13:22:56;12.53;;;10.87;;
22794;SDS011;11564;50.920;11.612;2022-08-19T13:25:22;13.23;;;10.93;;
22794;SDS011;11564;50.920;11.612;2022-08-19T13:27:48;18.80;;;11.03;;
22794;SDS011;11564;50.920;11.612;2022-08-19T13:30:16;12.90;;;10.43;;
22794;SDS011;11564;50.920;11.612;2022-08-19T13:33:00;11.87;;;10.67;;
22794;SDS011;11564;50.920;11.612;2022-08-19T13:35:35;15.90;;;9.77;;
22794;SDS011;11564;50.920;11.612;2022-08-19T13:38:02;11.50;;;10.40;;
22794;SDS011;11564;50.920;11.612;2022-08-19T13:40:29;12.50;;;11.27;;
22794;SDS011;11564;50.920;11.612;2022-08-19T13:42:59;11.87;;;10.40;;
22794;SDS011;11564;50.920;11.612;2022-08-19T13:45:26;8.80;;;7.43;;
22794;SDS011;11564;50.920;11.612;2022-08-19T13:47:53;9.43;;;8.60;;
22794;SDS011;11564;50.920;11.612;2022-08-19T13:50:25;10.10;;;9.07;;
22794;SDS011;11564;50.920;11.612;2022-08-19T13:52:53;10.00;;;8.20;;
22794;SDS011;11564;50.920;11.612;2022-08-19T13:55:20;8.63;;;7.50;;
22794;SDS011;11564;50.920;11.612;2022-08-19T13:57:49;10.63;;;9.20;;
22794;SDS011;11564;50.920;11.612;2022-08-19T14:00:17;10.80;;;9.80;;
22794;SDS011;11564;50.920;11.612;2022-08-19T14:02:44;9.90;;;9.00;;
22794;SDS011;11564;50.920;11.612;2022-08-19T14:05:11;15.80;;;9.40;;
22794;SDS011;11564;50.920;11.612;2022-08-19T14:07:38;11.73;;;10.50;;
22794;SDS011;11564;50.920;11.612;2022-08-19T14:10:05;13.33;;;10.87;;
22794;SDS011;11564;50.920;11.612;2022-08-19T14:12:33;12.00;;;10.80;;
22794;SDS011;11564;50.920;11.612;2022-08-19T14:14:59;10.53;;;9.53;;
22794;SDS011;11564;50.920;11.612;2022-08-19T14:17:25;13.27;;;9.23;;
22794;SDS011;11564;50.920;11.612;2022-08-19T14:20:01;11.17;;;10.03;;
22794;SDS011;11564;50.920;11.612;2022-08-19T14:22:30;12.47;;;10.70;;
22794;SDS011;11564;50.920;11.612;2022-08-19T14:24:56;9.53;;;8.73;;
22794;SDS011;11564;50.920;11.612;2022-08-19T14:27:22;9.03;;;8.03;;
22794;SDS011;11564;50.920;11.612;2022-08-19T14:29:49;7.30;;;6.70;;
22794;SDS011;11564;50.920;11.612;2022-08-19T14:32:15;9.17;;;8.03;;
22794;SDS011;11564;50.920;11.612;2022-08-19T14:34:40;9.73;;;7.90;;